Time;durP1;ratioP1;P1;durP2;ratioP2;P2;SDS_P1;SDS_P2;PMS_P1;PMS_P2;Temp;Humidity;BMP_temperature;BMP_pressure;BME280_temperature;BME280_humidity;BME280_pressure;Samples;Min_cycle;Max_cycle;Signal;HPM_P1;HPM_P2
2023/12/24 00:01:55;;;;;;;0.50;0.50;;;7.40;99.70;;;;;;4985555;28;20053;-72
2023/12/24 00:04:20;;;;;;;0.40;0.40;;;7.50;99.70;;;;;;4988928;28;20375;-73
2023/12/24 00:06:46;;;;;;;0.40;0.40;;;7.70;99.70;;;;;;4988882;28;20023;-73
2023/12/24 00:09:11;;;;;;;0.90;0.30;;;7.80;99.70;;;;;;4987568;28;20105;-73
2023/12/24 00:11:37;;;;;;;0.98;0.40;;;7.90;99.70;;;;;;4984363;28;20037;-73
2023/12/24 00:14:03;;;;;;;0.65;0.40;;;8.00;99.60;;;;;;4990222;28;20038;-73
2023/12/24 00:16:29;;;;;;;0.70;0.50;;;8.00;99.60;;;;;;4984056;28;20080;-73
2023/12/24 00:18:54;;;;;;;0.70;0.52;;;8.00;99.50;;;;;;4988360;28;20121;-73
2023/12/24 00:21:20;;;;;;;0.82;0.50;;;8.10;99.40;;;;;;4979141;28;20145;-73
2023/12/24 00:23:47;;;;;;;0.63;0.40;;;8.00;99.40;;;;;;4989929;28;20030;-73
2023/12/24 00:26:13;;;;;;;0.35;0.35;;;8.10;99.30;;;;;;4989502;28;20018;-73
2023/12/24 00:28:38;;;;;;;0.17;0.17;;;8.10;99.20;;;;;;4987451;28;20541;-73
2023/12/24 00:31:04;;;;;;;0.20;0.20;;;8.20;99.10;;;;;;4988462;28;20109;-73
2023/12/24 00:33:29;;;;;;;0.50;0.35;;;8.10;99.10;;;;;;4994225;28;20046;-73
2023/12/24 00:35:55;;;;;;;0.43;0.30;;;8.10;99.00;;;;;;4992076;28;20474;-73
2023/12/24 00:38:20;;;;;;;4.85;0.60;;;8.10;99.00;;;;;;4989298;28;20042;-73
2023/12/24 00:40:46;;;;;;;0.55;0.30;;;8.10;99.00;;;;;;4992402;28;20069;-72
2023/12/24 00:43:11;;;;;;;3.45;0.55;;;8.10;99.00;;;;;;4989087;28;20030;-73
2023/12/24 00:45:37;;;;;;;0.30;0.30;;;8.10;99.00;;;;;;4993768;28;20470;-73
2023/12/24 00:48:02;;;;;;;0.70;0.50;;;8.10;99.00;;;;;;4994689;28;20371;-73
2023/12/24 00:50:28;;;;;;;0.60;0.45;;;8.20;99.00;;;;;;4992559;28;20038;-73
2023/12/24 00:52:53;;;;;;;0.57;0.30;;;8.20;99.00;;;;;;4991724;28;20414;-73
2023/12/24 00:55:19;;;;;;;0.65;0.40;;;8.10;99.00;;;;;;4986163;28;20031;-73
2023/12/24 00:57:44;;;;;;;0.68;0.40;;;8.10;99.00;;;;;;4990026;28;20027;-73
2023/12/24 01:00:10;;;;;;;0.20;0.20;;;8.10;99.00;;;;;;4991755;28;20041;-73
2023/12/24 01:02:36;;;;;;;1.08;0.30;;;8.20;99.00;;;;;;4992414;28;20374;-73
2023/12/24 01:05:01;;;;;;;0.30;0.30;;;8.20;98.90;;;;;;4993696;28;20113;-73
2023/12/24 01:07:27;;;;;;;0.30;0.30;;;8.20;98.90;;;;;;4995189;28;20034;-73
2023/12/24 01:09:52;;;;;;;1.85;0.47;;;8.20;98.90;;;;;;4988715;28;20455;-73
2023/12/24 01:12:18;;;;;;;1.08;0.30;;;8.30;98.90;;;;;;4987209;28;20038;-72
2023/12/24 01:14:43;;;;;;;0.70;0.30;;;8.20;98.80;;;;;;4990660;28;20022;-73
2023/12/24 01:17:09;;;;;;;0.22;0.22;;;8.20;98.80;;;;;;4992638;28;20373;-73
2023/12/24 01:19:34;;;;;;;1.05;0.50;;;8.20;98.80;;;;;;4994149;28;20073;-73
2023/12/24 01:21:59;;;;;;;0.60;0.30;;;8.20;98.70;;;;;;4993016;28;20122;-73
2023/12/24 01:24:25;;;;;;;0.82;0.40;;;8.30;98.70;;;;;;4993178;28;20047;-73
2023/12/24 01:26:51;;;;;;;0.40;0.40;;;8.30;98.70;;;;;;5006248;28;20132;-73
2023/12/24 01:29:16;;;;;;;0.52;0.28;;;8.30;98.60;;;;;;4993094;28;20057;-73
2023/12/24 01:31:42;;;;;;;1.05;0.40;;;8.30;98.70;;;;;;4992413;28;20439;-73
2023/12/24 01:34:07;;;;;;;0.68;0.30;;;8.20;98.70;;;;;;4993969;28;20038;-73
2023/12/24 01:36:33;;;;;;;0.95;0.55;;;8.20;98.70;;;;;;4989705;28;20038;-72
2023/12/24 01:38:59;;;;;;;0.50;0.43;;;8.30;98.70;;;;;;4993501;28;20029;-72
2023/12/24 01:41:24;;;;;;;1.15;0.60;;;8.30;98.70;;;;;;4991012;28;20022;-72
2023/12/24 01:43:50;;;;;;;0.85;0.50;;;8.30;98.70;;;;;;4987690;28;20042;-73
2023/12/24 01:46:21;;;;;;;0.68;0.38;;;8.30;98.70;;;;;;4989212;28;20089;-73
2023/12/24 01:48:48;;;;;;;1.63;0.70;;;8.30;98.70;;;;;;4988261;28;20176;-73
2023/12/24 01:51:15;;;;;;;0.40;0.38;;;8.30;98.70;;;;;;4987419;28;20451;-73
2023/12/24 01:53:42;;;;;;;1.08;0.52;;;8.30;98.70;;;;;;4986932;28;20120;-73
2023/12/24 01:56:07;;;;;;;0.77;0.40;;;8.30;98.70;;;;;;4991394;28;20026;-73
2023/12/24 01:58:33;;;;;;;0.40;0.40;;;8.30;98.70;;;;;;4988680;28;20073;-73
2023/12/24 02:01:00;;;;;;;0.35;0.35;;;8.30;98.70;;;;;;4988114;28;20382;-73
2023/12/24 02:03:25;;;;;;;0.95;0.50;;;8.30;98.70;;;;;;4991546;28;20026;-73
2023/12/24 02:05:52;;;;;;;0.70;0.40;;;8.30;98.70;;;;;;4987146;28;20050;-73
2023/12/24 02:08:21;;;;;;;0.40;0.40;;;8.30;98.70;;;;;;4984313;28;20496;-73
2023/12/24 02:10:48;;;;;;;0.35;0.35;;;8.30;98.80;;;;;;4985555;28;20026;-73
2023/12/24 02:13:14;;;;;;;0.50;0.40;;;8.30;98.80;;;;;;4984679;28;20046;-73
2023/12/24 02:15:40;;;;;;;1.10;0.60;;;8.20;98.80;;;;;;4989138;28;20039;-73
2023/12/24 02:18:07;;;;;;;1.25;0.55;;;8.30;98.80;;;;;;4990175;28;20363;-73
2023/12/24 02:20:32;;;;;;;1.52;0.80;;;8.30;98.80;;;;;;4993028;28;20034;-72
2023/12/24 02:22:58;;;;;;;0.30;0.30;;;8.30;98.80;;;;;;4983069;28;20054;-73
2023/12/24 02:25:25;;;;;;;1.08;0.68;;;8.30;98.70;;;;;;4987714;28;20018;-73
2023/12/24 02:28:14;;;;;;;0.70;0.70;;;8.30;98.70;;;;;;4985083;28;20046;-73
2023/12/24 02:30:47;;;;;;;1.27;0.73;;;8.30;98.70;;;;;;4986760;28;20026;-73
2023/12/24 02:33:15;;;;;;;2.33;1.08;;;8.30;98.70;;;;;;4981914;28;20431;-73
2023/12/24 02:35:42;;;;;;;0.70;0.65;;;8.30;98.70;;;;;;4989253;28;20041;-73
2023/12/24 02:38:08;;;;;;;0.43;0.43;;;8.30;98.70;;;;;;4990502;28;20026;-73
2023/12/24 02:40:33;;;;;;;0.28;0.28;;;8.30;98.70;;;;;;4989122;28;20382;-72
2023/12/24 02:42:59;;;;;;;0.95;0.80;;;8.30;98.70;;;;;;4985886;28;20031;-72
2023/12/24 02:45:24;;;;;;;0.70;0.60;;;8.30;98.70;;;;;;4988011;28;20122;-73
2023/12/24 02:47:50;;;;;;;0.82;0.55;;;8.30;98.70;;;;;;4990073;28;20041;-73
2023/12/24 02:50:19;;;;;;;0.50;0.47;;;8.30;98.70;;;;;;4989955;28;20489;-73
2023/12/24 02:52:46;;;;;;;0.47;0.32;;;8.30;98.70;;;;;;5002737;28;20049;-73
2023/12/24 02:55:11;;;;;;;0.98;0.60;;;8.30;98.70;;;;;;4988510;28;20025;-73
2023/12/24 02:57:36;;;;;;;0.60;0.60;;;8.30;98.70;;;;;;4987730;28;20034;-73
2023/12/24 03:00:04;;;;;;;0.80;0.60;;;8.30;98.70;;;;;;4984246;28;20060;-73
2023/12/24 03:02:30;;;;;;;0.95;0.60;;;8.30;98.70;;;;;;4989579;28;20033;-73
2023/12/24 03:04:56;;;;;;;2.28;0.80;;;8.30;98.70;;;;;;4989522;28;20034;-73
2023/12/24 03:07:21;;;;;;;1.08;0.70;;;8.30;98.70;;;;;;4987560;28;20439;-72
2023/12/24 03:09:46;;;;;;;1.00;0.70;;;8.30;98.70;;;;;;4989405;28;20032;-73
2023/12/24 03:12:12;;;;;;;1.00;0.80;;;8.30;98.70;;;;;;4999914;28;20134;-73
2023/12/24 03:14:37;;;;;;;0.95;0.68;;;8.30;98.70;;;;;;4987914;28;20109;-73
2023/12/24 03:17:03;;;;;;;0.47;0.35;;;8.30;98.70;;;;;;4987670;28;20366;-72
2023/12/24 03:19:32;;;;;;;0.77;0.50;;;8.40;98.70;;;;;;4988717;28;20027;-73
2023/12/24 03:21:58;;;;;;;1.05;0.50;;;8.40;98.60;;;;;;4989639;28;20366;-73
2023/12/24 03:24:23;;;;;;;0.68;0.55;;;8.30;98.70;;;;;;4990491;28;20034;-72
2023/12/24 03:26:48;;;;;;;0.98;0.50;;;8.30;98.70;;;;;;4990122;28;20042;-73
2023/12/24 03:29:16;;;;;;;0.70;0.63;;;8.30;98.70;;;;;;4987678;28;20454;-73
2023/12/24 03:31:42;;;;;;;0.93;0.52;;;8.30;98.70;;;;;;4988122;28;20042;-73
2023/12/24 03:34:08;;;;;;;0.40;0.40;;;8.30;98.70;;;;;;4988708;28;20030;-73
2023/12/24 03:36:33;;;;;;;0.80;0.57;;;8.30;98.70;;;;;;4989818;28;20455;-72
2023/12/24 03:39:00;;;;;;;1.20;0.50;;;8.30;98.70;;;;;;4988694;28;20062;-73
2023/12/24 03:41:26;;;;;;;0.50;0.50;;;8.30;98.70;;;;;;4987458;28;20513;-72
2023/12/24 03:43:51;;;;;;;0.65;0.50;;;8.30;98.70;;;;;;4987784;28;20034;-73
2023/12/24 03:46:21;;;;;;;2.05;0.70;;;8.30;98.80;;;;;;4992509;28;20026;-73
2023/12/24 03:48:46;;;;;;;2.10;0.50;;;8.30;98.80;;;;;;4990227;28;20109;-72
2023/12/24 03:51:12;;;;;;;0.73;0.50;;;8.30;98.80;;;;;;4991807;28;20154;-73
2023/12/24 03:53:38;;;;;;;1.23;0.52;;;8.40;98.80;;;;;;4988046;28;20225;-73
2023/12/24 03:56:04;;;;;;;0.60;0.40;;;8.30;98.70;;;;;;4989869;28;20426;-73
2023/12/24 03:58:30;;;;;;;0.63;0.40;;;8.30;98.70;;;;;;4986395;28;20557;-73
2023/12/24 04:00:56;;;;;;;0.57;0.40;;;8.30;98.80;;;;;;4989731;28;20026;-73
2023/12/24 04:03:21;;;;;;;0.25;0.20;;;8.30;98.80;;;;;;4989612;28;20030;-72
2023/12/24 04:05:47;;;;;;;0.47;0.47;;;8.30;98.80;;;;;;4986765;28;20026;-72
2023/12/24 04:08:13;;;;;;;1.10;0.60;;;8.30;98.80;;;;;;4987438;28;20494;-72
2023/12/24 04:10:39;;;;;;;1.50;0.90;;;8.30;98.80;;;;;;4976586;28;20113;-72
2023/12/24 04:13:06;;;;;;;0.57;0.47;;;8.30;98.80;;;;;;4986772;28;20526;-73
2023/12/24 04:15:31;;;;;;;0.80;0.55;;;8.30;98.90;;;;;;4982852;28;20050;-72
2023/12/24 04:17:57;;;;;;;0.65;0.40;;;8.30;98.90;;;;;;4980205;28;20061;-72
2023/12/24 04:20:22;;;;;;;0.93;0.60;;;8.30;98.90;;;;;;4986157;28;20448;-73
2023/12/24 04:22:48;;;;;;;0.90;0.60;;;8.30;98.90;;;;;;4985644;28;20152;-73
2023/12/24 04:25:13;;;;;;;0.52;0.43;;;8.30;98.90;;;;;;4985660;28;20109;-73
2023/12/24 04:27:39;;;;;;;0.77;0.52;;;8.40;98.80;;;;;;4985723;28;20046;-73
2023/12/24 04:30:05;;;;;;;0.30;0.30;;;8.40;98.80;;;;;;4980799;28;20341;-72
2023/12/24 04:32:30;;;;;;;1.00;0.50;;;8.40;98.90;;;;;;4981278;28;20426;-73
2023/12/24 04:34:56;;;;;;;0.40;0.32;;;8.40;98.90;;;;;;4990294;28;20026;-72
2023/12/24 04:37:21;;;;;;;0.70;0.47;;;8.30;98.90;;;;;;4989029;28;20034;-72
2023/12/24 04:39:47;;;;;;;0.95;0.50;;;8.30;98.90;;;;;;4989137;28;20478;-73
2023/12/24 04:42:13;;;;;;;0.60;0.50;;;8.30;98.90;;;;;;4989057;28;20034;-73
2023/12/24 04:44:38;;;;;;;1.13;0.60;;;8.40;99.00;;;;;;4984475;28;20034;-73
2023/12/24 04:47:06;;;;;;;0.70;0.35;;;8.40;99.00;;;;;;4989626;28;20030;-73
2023/12/24 04:49:31;;;;;;;0.40;0.40;;;8.30;98.90;;;;;;4982258;28;20082;-73
2023/12/24 04:51:57;;;;;;;1.00;0.57;;;8.40;98.90;;;;;;4986249;28;20030;-72
2023/12/24 04:54:23;;;;;;;0.45;0.40;;;8.40;98.90;;;;;;4986867;28;20030;-73
2023/12/24 04:56:49;;;;;;;0.73;0.50;;;8.30;98.90;;;;;;4986011;28;20022;-72
2023/12/24 04:59:15;;;;;;;0.30;0.30;;;8.40;98.90;;;;;;4984917;28;20059;-72
2023/12/24 05:01:40;;;;;;;0.80;0.50;;;8.40;98.90;;;;;;4986246;28;20054;-72
2023/12/24 05:04:06;;;;;;;0.20;0.20;;;8.40;98.90;;;;;;4988047;28;20030;-72
2023/12/24 05:06:32;;;;;;;0.75;0.40;;;8.40;98.90;;;;;;4985587;28;20015;-73
2023/12/24 05:08:57;;;;;;;2.03;0.47;;;8.40;99.00;;;;;;4989203;28;20045;-72
2023/12/24 05:11:23;;;;;;;1.27;0.60;;;8.40;98.90;;;;;;4980548;28;20030;-73
2023/12/24 05:13:48;;;;;;;0.35;0.35;;;8.40;99.00;;;;;;4975422;28;20121;-72
2023/12/24 05:16:13;;;;;;;0.57;0.40;;;8.40;98.90;;;;;;4978612;28;20121;-72
2023/12/24 05:18:39;;;;;;;0.50;0.50;;;8.30;99.00;;;;;;4979143;28;20034;-72
2023/12/24 05:21:04;;;;;;;0.28;0.28;;;8.40;99.00;;;;;;4988759;28;20104;-72
2023/12/24 05:23:31;;;;;;;0.30;0.30;;;8.30;99.00;;;;;;4984451;28;20042;-72
2023/12/24 05:25:57;;;;;;;0.30;0.30;;;8.30;99.00;;;;;;4983608;28;20374;-69
2023/12/24 05:28:23;;;;;;;0.30;0.30;;;8.40;99.00;;;;;;4989863;28;20477;-69
2023/12/24 05:30:48;;;;;;;0.60;0.30;;;8.30;99.00;;;;;;4987473;28;20038;-70
2023/12/24 05:33:14;;;;;;;1.92;0.40;;;8.30;99.00;;;;;;4991138;28;20054;-70
2023/12/24 05:35:39;;;;;;;0.30;0.30;;;8.40;99.00;;;;;;4987495;28;20034;-69
2023/12/24 05:38:05;;;;;;;0.40;0.32;;;8.40;99.00;;;;;;5008506;28;20461;-69
2023/12/24 05:40:31;;;;;;;0.30;0.30;;;8.40;99.00;;;;;;4992443;28;20034;-69
2023/12/24 05:42:56;;;;;;;0.40;0.40;;;8.40;99.00;;;;;;4990602;28;20022;-69
2023/12/24 05:45:22;;;;;;;0.47;0.40;;;8.40;99.00;;;;;;4990415;28;20037;-69
2023/12/24 05:47:47;;;;;;;0.65;0.40;;;8.40;99.10;;;;;;4992966;28;20406;-70
2023/12/24 05:50:13;;;;;;;0.55;0.55;;;8.40;99.10;;;;;;4992669;28;20049;-69
2023/12/24 05:52:41;;;;;;;0.40;0.38;;;8.40;99.10;;;;;;4987844;28;20355;-70
2023/12/24 05:55:07;;;;;;;0.98;0.52;;;8.40;99.10;;;;;;4993404;28;20113;-69
2023/12/24 05:57:33;;;;;;;0.65;0.50;;;8.40;99.10;;;;;;4994345;28;20033;-70
2023/12/24 05:59:58;;;;;;;0.63;0.57;;;8.40;99.10;;;;;;4989629;28;20023;-69
2023/12/24 06:02:24;;;;;;;1.20;0.57;;;8.40;99.10;;;;;;4990425;28;20049;-69
2023/12/24 06:04:50;;;;;;;0.35;0.35;;;8.40;99.10;;;;;;4990372;28;20038;-69
2023/12/24 06:07:15;;;;;;;0.60;0.60;;;8.40;99.10;;;;;;4988505;28;20022;-69
2023/12/24 06:09:41;;;;;;;0.73;0.43;;;8.40;99.10;;;;;;4986638;28;20081;-70
2023/12/24 06:12:06;;;;;;;0.40;0.40;;;8.40;99.10;;;;;;4990727;28;20092;-69
2023/12/24 06:14:32;;;;;;;0.52;0.30;;;8.40;99.10;;;;;;4985804;28;20481;-69
2023/12/24 06:16:57;;;;;;;0.85;0.70;;;8.50;99.10;;;;;;4986088;28;20045;-69
2023/12/24 06:19:23;;;;;;;0.60;0.50;;;8.40;99.10;;;;;;4989859;28;20041;-70
2023/12/24 06:21:50;;;;;;;0.93;0.73;;;8.40;99.10;;;;;;4992843;28;20370;-68
2023/12/24 06:24:20;;;;;;;0.85;0.52;;;8.50;99.10;;;;;;4992991;28;20049;-70
2023/12/24 06:26:49;;;;;;;0.50;0.50;;;8.50;99.10;;;;;;4991228;28;20014;-69
2023/12/24 06:29:15;;;;;;;0.73;0.50;;;8.50;99.10;;;;;;5000459;28;20050;-69
2023/12/24 06:31:40;;;;;;;0.80;0.70;;;8.50;99.10;;;;;;4992595;28;20034;-70
2023/12/24 06:34:06;;;;;;;0.70;0.50;;;8.50;99.10;;;;;;4993112;28;20116;-69
2023/12/24 06:36:31;;;;;;;0.60;0.35;;;8.40;99.10;;;;;;4993780;28;20030;-70
2023/12/24 06:38:57;;;;;;;0.70;0.60;;;8.50;99.10;;;;;;4991050;28;20045;-70
2023/12/24 06:41:23;;;;;;;1.02;0.63;;;8.50;99.10;;;;;;4986314;28;20033;-70
2023/12/24 06:43:48;;;;;;;0.93;0.60;;;8.50;99.10;;;;;;4987197;28;20022;-70
2023/12/24 06:46:14;;;;;;;0.50;0.40;;;8.50;99.10;;;;;;4989192;28;20041;-71
2023/12/24 06:48:40;;;;;;;0.70;0.50;;;8.50;99.10;;;;;;4993316;28;20367;-70
2023/12/24 06:51:05;;;;;;;0.60;0.55;;;8.50;99.10;;;;;;4987762;28;20031;-70
2023/12/24 06:53:31;;;;;;;1.40;0.60;;;8.50;99.10;;;;;;4981487;28;20030;-70
2023/12/24 06:55:56;;;;;;;3.53;0.80;;;8.50;99.10;;;;;;4984033;28;20065;-70
2023/12/24 06:58:22;;;;;;;1.58;0.77;;;8.50;99.10;;;;;;4988489;28;20529;-70
2023/12/24 07:00:47;;;;;;;0.77;0.52;;;8.50;99.20;;;;;;4986202;28;20042;-69
2023/12/24 07:03:13;;;;;;;2.28;0.70;;;8.50;99.20;;;;;;4987556;28;20033;-70
2023/12/24 07:05:38;;;;;;;0.70;0.63;;;8.50;99.20;;;;;;4991893;28;20037;-70
2023/12/24 07:08:07;;;;;;;0.93;0.60;;;8.50;99.20;;;;;;4990537;28;20110;-69
2023/12/24 07:10:32;;;;;;;1.23;0.70;;;8.50;99.20;;;;;;4987494;28;20455;-70
2023/12/24 07:12:58;;;;;;;0.88;0.52;;;8.50;99.20;;;;;;4986420;28;20030;-69
2023/12/24 07:15:23;;;;;;;0.60;0.40;;;8.50;99.20;;;;;;4986849;28;20030;-69
2023/12/24 07:17:49;;;;;;;0.77;0.55;;;8.60;99.20;;;;;;4989290;28;20542;-69
2023/12/24 07:20:14;;;;;;;1.02;0.50;;;8.50;99.20;;;;;;4991410;28;20022;-70
2023/12/24 07:22:40;;;;;;;1.13;0.75;;;8.50;99.20;;;;;;4991460;28;20093;-70
2023/12/24 07:25:06;;;;;;;0.70;0.52;;;8.60;99.20;;;;;;4989427;28;20550;-70
2023/12/24 07:27:32;;;;;;;0.80;0.57;;;8.60;99.20;;;;;;4988990;28;20054;-70
2023/12/24 07:29:57;;;;;;;0.63;0.47;;;8.60;99.20;;;;;;4988481;28;20022;-69
2023/12/24 07:32:23;;;;;;;0.47;0.40;;;8.60;99.20;;;;;;4990120;28;20038;-70
2023/12/24 07:34:48;;;;;;;0.75;0.68;;;8.60;99.20;;;;;;4992062;28;20030;-70
2023/12/24 07:37:14;;;;;;;0.77;0.52;;;8.60;99.30;;;;;;4988404;28;20027;-70
2023/12/24 07:39:40;;;;;;;0.63;0.40;;;8.60;99.30;;;;;;4989572;28;20482;-70
2023/12/24 07:42:05;;;;;;;1.17;0.75;;;8.60;99.30;;;;;;4984219;28;20027;-70
2023/12/24 07:44:31;;;;;;;0.68;0.40;;;8.60;99.30;;;;;;4987424;28;20045;-70
2023/12/24 07:46:56;;;;;;;0.73;0.40;;;8.60;99.30;;;;;;4988834;28;20057;-70
2023/12/24 07:49:22;;;;;;;0.57;0.50;;;8.60;99.30;;;;;;4990223;28;20061;-70
2023/12/24 07:51:48;;;;;;;0.50;0.40;;;8.60;99.30;;;;;;4985285;28;20050;-70
2023/12/24 07:54:13;;;;;;;1.23;0.50;;;8.60;99.30;;;;;;4987505;28;20121;-70
2023/12/24 07:56:40;;;;;;;0.73;0.50;;;8.60;99.30;;;;;;4984093;28;20427;-70
2023/12/24 07:59:05;;;;;;;0.50;0.30;;;8.70;99.40;;;;;;4989209;28;20023;-70
2023/12/24 08:01:31;;;;;;;0.77;0.40;;;8.70;99.40;;;;;;4989121;28;20352;-74
2023/12/24 08:03:56;;;;;;;0.38;0.30;;;8.70;99.40;;;;;;4989575;28;20034;-70
2023/12/24 08:06:22;;;;;;;0.47;0.40;;;8.70;99.30;;;;;;4990612;28;20808;-70
2023/12/24 08:08:47;;;;;;;0.68;0.50;;;8.70;99.30;;;;;;4991311;28;20037;-70
2023/12/24 08:11:13;;;;;;;0.65;0.50;;;8.80;99.40;;;;;;4989316;28;20047;-70
2023/12/24 08:13:38;;;;;;;0.45;0.40;;;8.80;99.40;;;;;;4989074;28;20038;-70
2023/12/24 08:16:04;;;;;;;0.55;0.43;;;8.80;99.30;;;;;;4987324;28;20489;-69
2023/12/24 08:18:29;;;;;;;1.30;0.63;;;8.80;99.30;;;;;;4989050;28;20026;-68
2023/12/24 08:20:55;;;;;;;1.23;0.60;;;8.80;99.30;;;;;;4986735;28;20110;-68
2023/12/24 08:23:20;;;;;;;0.63;0.40;;;8.80;99.30;;;;;;4989846;28;20039;-70
2023/12/24 08:25:46;;;;;;;0.73;0.50;;;8.80;99.30;;;;;;4990069;28;20042;-69
2023/12/24 08:28:12;;;;;;;1.05;0.65;;;8.80;99.30;;;;;;4985446;28;20073;-70
2023/12/24 08:30:38;;;;;;;0.60;0.38;;;8.80;99.30;;;;;;4989327;28;20034;-70
2023/12/24 08:33:04;;;;;;;1.10;0.47;;;8.90;99.30;;;;;;4989258;28;20481;-67
2023/12/24 08:35:31;;;;;;;0.30;0.30;;;8.90;99.30;;;;;;4989387;28;20066;-69
2023/12/24 08:37:56;;;;;;;0.75;0.50;;;8.90;99.30;;;;;;4982695;28;20378;-70
2023/12/24 08:40:23;;;;;;;1.92;0.90;;;8.90;99.30;;;;;;4985438;28;20037;-70
2023/12/24 08:42:49;;;;;;;0.93;0.57;;;8.90;99.40;;;;;;4984971;28;20033;-71
2023/12/24 08:45:14;;;;;;;0.80;0.60;;;9.00;99.40;;;;;;4985307;28;20030;-69
2023/12/24 08:47:40;;;;;;;1.65;0.70;;;9.00;99.40;;;;;;4989015;28;20084;-70
2023/12/24 08:50:05;;;;;;;0.93;0.50;;;9.00;99.40;;;;;;4986872;28;20066;-69
2023/12/24 08:52:31;;;;;;;2.05;0.40;;;9.00;99.40;;;;;;4986754;28;20085;-70
2023/12/24 08:54:56;;;;;;;0.88;0.50;;;9.00;99.40;;;;;;4990035;28;20019;-69
2023/12/24 08:57:22;;;;;;;0.52;0.47;;;9.00;99.40;;;;;;4988672;28;20456;-70
2023/12/24 08:59:47;;;;;;;3.00;0.63;;;9.10;99.40;;;;;;4986778;28;20040;-70
2023/12/24 09:02:13;;;;;;;0.77;0.70;;;9.00;99.40;;;;;;4989014;28;20382;-71
2023/12/24 09:04:39;;;;;;;0.80;0.60;;;9.00;99.40;;;;;;4993159;28;20026;-71
2023/12/24 09:07:04;;;;;;;0.90;0.50;;;9.10;99.40;;;;;;4987288;28;20436;-70
2023/12/24 09:09:30;;;;;;;1.10;0.70;;;9.10;99.40;;;;;;4991171;28;20037;-71
2023/12/24 09:11:55;;;;;;;0.77;0.60;;;9.10;99.40;;;;;;4990244;28;20030;-69
2023/12/24 09:14:21;;;;;;;0.98;0.60;;;9.10;99.40;;;;;;4989707;28;20054;-72
2023/12/24 09:16:46;;;;;;;0.45;0.45;;;9.10;99.40;;;;;;4985360;28;20031;-70
2023/12/24 09:19:12;;;;;;;1.15;0.60;;;9.10;99.50;;;;;;4992683;28;20073;-71
2023/12/24 09:21:37;;;;;;;0.75;0.45;;;9.10;99.50;;;;;;4987434;28;20042;-72
2023/12/24 09:24:06;;;;;;;0.63;0.50;;;9.10;99.50;;;;;;4991840;28;20044;-71
2023/12/24 09:26:31;;;;;;;0.30;0.30;;;9.20;99.50;;;;;;4991447;28;20057;-71
2023/12/24 09:28:57;;;;;;;1.33;0.65;;;9.20;99.50;;;;;;4987726;28;20059;-71
2023/12/24 09:31:23;;;;;;;0.60;0.55;;;9.20;99.50;;;;;;4990146;28;20085;-70
2023/12/24 09:33:48;;;;;;;0.50;0.40;;;9.20;99.50;;;;;;4990084;28;20030;-70
2023/12/24 09:36:14;;;;;;;1.08;0.63;;;9.20;99.50;;;;;;4993556;28;20549;-71
2023/12/24 09:38:39;;;;;;;1.10;0.50;;;9.30;99.60;;;;;;4994886;28;20034;-69
2023/12/24 09:41:05;;;;;;;0.70;0.65;;;9.30;99.60;;;;;;4989874;28;20448;-69
2023/12/24 09:43:31;;;;;;;0.95;0.63;;;9.30;99.50;;;;;;4983858;28;20394;-70
2023/12/24 09:45:57;;;;;;;1.13;0.50;;;9.40;99.60;;;;;;4987828;28;20028;-69
2023/12/24 09:48:23;;;;;;;0.65;0.50;;;9.30;99.50;;;;;;4993479;28;20030;-70
2023/12/24 09:50:48;;;;;;;0.93;0.63;;;9.40;99.50;;;;;;4990014;28;20493;-71
2023/12/24 09:53:14;;;;;;;1.20;0.55;;;9.40;99.50;;;;;;4992184;28;20506;-69
2023/12/24 09:55:40;;;;;;;0.98;0.70;;;9.40;99.50;;;;;;4991978;28;20034;-70
2023/12/24 09:58:05;;;;;;;0.40;0.35;;;9.50;99.50;;;;;;4988560;28;20372;-69
2023/12/24 10:00:31;;;;;;;1.35;0.57;;;9.50;99.60;;;;;;4991923;28;20054;-68
2023/12/24 10:02:56;;;;;;;1.17;0.68;;;9.50;99.60;;;;;;4989393;28;20031;-69
2023/12/24 10:05:22;;;;;;;0.85;0.60;;;9.50;99.60;;;;;;4991302;28;20379;-68
2023/12/24 10:07:47;;;;;;;1.10;0.50;;;9.50;99.60;;;;;;4993013;28;20026;-69
2023/12/24 10:10:17;;;;;;;1.08;0.50;;;9.60;99.60;;;;;;4989053;28;20038;-71
2023/12/24 10:12:42;;;;;;;0.77;0.50;;;9.60;99.60;;;;;;4990814;28;20083;-70
2023/12/24 10:15:08;;;;;;;0.88;0.40;;;9.60;99.50;;;;;;4989193;28;20096;-70
2023/12/24 10:17:35;;;;;;;0.80;0.60;;;9.60;99.60;;;;;;4991107;28;20050;-70
2023/12/24 10:20:06;;;;;;;0.38;0.38;;;9.60;99.50;;;;;;4987756;28;20053;-70
2023/12/24 10:22:33;;;;;;;0.95;0.40;;;9.60;99.50;;;;;;4994621;28;20027;-71
2023/12/24 10:25:00;;;;;;;1.17;0.70;;;9.70;99.50;;;;;;4990531;28;20038;-69
2023/12/24 10:27:26;;;;;;;0.60;0.40;;;9.70;99.50;;;;;;4991374;28;20051;-69
2023/12/24 10:29:53;;;;;;;0.93;0.57;;;9.60;99.50;;;;;;4988997;28;20033;-71
2023/12/24 10:32:24;;;;;;;0.68;0.57;;;9.60;99.50;;;;;;4983303;28;20090;-70
2023/12/24 10:34:57;;;;;;;0.50;0.30;;;9.70;99.50;;;;;;4985312;28;20493;-70
2023/12/24 10:37:27;;;;;;;0.85;0.50;;;9.70;99.50;;;;;;4991023;28;20092;-68
2023/12/24 10:39:53;;;;;;;1.15;0.55;;;9.70;99.50;;;;;;4987256;28;20443;-69
2023/12/24 10:42:19;;;;;;;1.10;0.60;;;9.70;99.60;;;;;;4985280;28;20085;-69
2023/12/24 10:44:45;;;;;;;0.52;0.40;;;9.80;99.50;;;;;;4988512;28;20321;-70
2023/12/24 10:47:11;;;;;;;0.90;0.40;;;9.70;99.50;;;;;;4991337;28;20097;-68
2023/12/24 10:49:36;;;;;;;1.02;0.60;;;9.80;99.50;;;;;;4988462;28;20084;-68
2023/12/24 10:52:02;;;;;;;1.48;0.50;;;9.80;99.50;;;;;;4990179;28;20046;-69
2023/12/24 10:54:28;;;;;;;0.65;0.57;;;9.80;99.50;;;;;;4988106;28;20470;-69
2023/12/24 10:57:03;;;;;;;1.05;0.50;;;9.80;99.50;;;;;;4990962;28;20394;-68
2023/12/24 10:59:43;;;;;;;0.95;0.40;;;9.80;99.60;;;;;;4986062;28;20038;-68
2023/12/24 11:02:13;;;;;;;0.83;0.53;;;9.80;99.60;;;;;;4989293;28;20049;-69
2023/12/24 11:04:43;;;;;;;1.02;0.57;;;9.80;99.60;;;;;;4991898;28;20309;-68
2023/12/24 11:07:09;;;;;;;0.73;0.45;;;9.80;99.60;;;;;;4990612;28;20042;-68
2023/12/24 11:09:34;;;;;;;1.10;0.47;;;9.90;99.60;;;;;;4987208;28;20035;-68
2023/12/24 11:11:59;;;;;;;0.65;0.40;;;9.90;99.60;;;;;;4977601;28;20049;-69
2023/12/24 11:14:41;;;;;;;0.60;0.30;;;9.90;99.60;;;;;;4988167;28;20034;-68
2023/12/24 11:17:10;;;;;;;0.85;0.40;;;9.90;99.60;;;;;;4987811;28;20026;-68
2023/12/24 11:19:41;;;;;;;0.47;0.28;;;10.00;99.60;;;;;;4992079;28;20062;-68
2023/12/24 11:22:08;;;;;;;1.17;0.47;;;10.00;99.60;;;;;;4991648;28;20081;-69
2023/12/24 11:24:34;;;;;;;0.32;0.30;;;10.00;99.60;;;;;;4979276;28;20035;-68
2023/12/24 11:27:00;;;;;;;0.65;0.40;;;10.00;99.60;;;;;;4983676;28;20030;-69
2023/12/24 11:29:40;;;;;;;0.28;0.28;;;10.00;99.60;;;;;;4986826;28;20054;-69
2023/12/24 11:32:32;;;;;;;0.52;0.35;;;10.00;99.60;;;;;;4987287;28;20042;-68
2023/12/24 11:34:59;;;;;;;0.73;0.40;;;10.00;99.60;;;;;;4987649;28;20022;-69
2023/12/24 11:37:34;;;;;;;0.50;0.30;;;10.00;99.60;;;;;;4988193;28;20414;-68
2023/12/24 11:40:07;;;;;;;0.50;0.40;;;10.10;99.60;;;;;;4986788;28;20086;-69
2023/12/24 11:42:46;;;;;;;0.47;0.40;;;10.10;99.60;;;;;;4987001;28;20117;-68
2023/12/24 11:45:29;;;;;;;0.38;0.30;;;10.10;99.60;;;;;;4987900;28;20117;-68
2023/12/24 11:47:55;;;;;;;0.95;0.60;;;10.10;99.60;;;;;;4990385;28;20035;-69
2023/12/24 11:50:22;;;;;;;0.63;0.35;;;10.10;99.60;;;;;;4990946;28;20053;-70
2023/12/24 11:52:49;;;;;;;0.52;0.28;;;10.10;99.60;;;;;;4990473;28;20387;-68
2023/12/24 11:55:16;;;;;;;0.70;0.40;;;10.10;99.60;;;;;;4988938;28;20383;-68
2023/12/24 11:57:42;;;;;;;0.68;0.38;;;10.10;99.60;;;;;;4987722;28;20037;-69
2023/12/24 12:00:13;;;;;;;0.43;0.40;;;10.10;99.60;;;;;;4985102;28;20383;-68
2023/12/24 12:02:40;;;;;;;0.50;0.50;;;10.10;99.60;;;;;;4987702;28;20030;-68
2023/12/24 12:05:05;;;;;;;0.70;0.40;;;10.20;99.60;;;;;;4998441;28;20034;-70
2023/12/24 12:07:31;;;;;;;0.35;0.28;;;10.20;99.60;;;;;;4988097;28;20038;-69
2023/12/24 12:09:56;;;;;;;0.40;0.30;;;10.20;99.60;;;;;;4984691;28;20026;-69
2023/12/24 12:12:22;;;;;;;0.50;0.40;;;10.20;99.60;;;;;;4986599;28;20042;-70
2023/12/24 12:14:47;;;;;;;0.20;0.20;;;10.20;99.60;;;;;;4989530;28;20039;-70
2023/12/24 12:17:12;;;;;;;0.38;0.20;;;10.20;99.60;;;;;;4988587;28;20380;-69
2023/12/24 12:19:39;;;;;;;0.40;0.30;;;10.20;99.60;;;;;;4992360;28;20089;-69
2023/12/24 12:22:05;;;;;;;0.22;0.20;;;10.30;99.60;;;;;;4991037;28;20105;-70
2023/12/24 12:24:31;;;;;;;0.20;0.20;;;10.20;99.60;;;;;;4990026;28;20145;-69
2023/12/24 12:26:57;;;;;;;0.13;0.10;;;10.20;99.60;;;;;;4988761;28;20030;-70
2023/12/24 12:29:22;;;;;;;0.47;0.20;;;10.20;99.60;;;;;;4988893;28;20121;-69
2023/12/24 12:31:48;;;;;;;0.10;0.10;;;10.30;99.60;;;;;;4993417;28;20117;-69
2023/12/24 12:34:13;;;;;;;0.30;0.30;;;10.30;99.60;;;;;;4994390;28;20035;-71
2023/12/24 12:36:39;;;;;;;0.32;0.20;;;10.30;99.60;;;;;;4994389;28;20030;-70
2023/12/24 12:39:08;;;;;;;0.20;0.20;;;10.30;99.70;;;;;;4995710;28;20054;-69
2023/12/24 12:41:33;;;;;;;0.43;0.22;;;10.30;99.70;;;;;;4992561;28;20907;-69
2023/12/24 12:43:59;;;;;;;0.10;0.10;;;10.30;99.70;;;;;;4992660;28;20067;-69
2023/12/24 12:46:25;;;;;;;0.15;0.15;;;10.40;99.70;;;;;;5000326;28;20034;-69
2023/12/24 12:48:51;;;;;;;0.10;0.10;;;10.40;99.60;;;;;;4995408;28;20026;-70
2023/12/24 12:51:17;;;;;;;0.10;0.10;;;10.40;99.60;;;;;;4994049;28;20042;-70